createdAt,value
2023-04-02T00:00:33.459Z,9.71
2023-04-02T00:01:33.353Z,9.68
2023-04-02T00:02:33.390Z,9.64
2023-04-02T00:03:33.314Z,9.71
2023-04-02T00:04:33.107Z,9.68
2023-04-02T00:05:33.285Z,9.60
2023-04-02T00:06:33.358Z,9.67
2023-04-02T00:07:32.863Z,9.63
2023-04-02T00:08:32.791Z,9.61
2023-04-02T00:09:32.708Z,9.63
2023-04-02T00:10:32.623Z,9.53
2023-04-02T00:11:32.539Z,9.58
2023-04-02T00:12:32.457Z,9.58
2023-04-02T00:13:32.393Z,9.55
2023-04-02T00:14:32.299Z,9.55
2023-04-02T00:15:32.536Z,9.50
2023-04-02T00:16:32.237Z,9.61
2023-04-02T00:17:32.056Z,9.52
2023-04-02T00:18:31.989Z,9.67
2023-04-02T00:19:31.903Z,9.61
2023-04-02T00:20:31.806Z,9.58
2023-04-02T00:21:31.746Z,9.58
2023-04-02T00:22:31.665Z,9.64
2023-04-02T00:23:31.581Z,9.58
2023-04-02T00:24:31.492Z,9.68
2023-04-02T00:25:31.418Z,9.60
2023-04-02T00:26:31.322Z,9.64
2023-04-02T00:27:31.240Z,9.58
2023-04-02T00:28:31.160Z,9.56
2023-04-02T00:29:31.081Z,9.53
2023-04-02T00:30:30.997Z,9.60
2023-04-02T00:31:30.921Z,9.58
2023-04-02T00:32:30.899Z,9.70
2023-04-02T00:33:30.747Z,9.67
2023-04-02T00:34:30.664Z,9.65
2023-04-02T00:35:30.590Z,9.68
2023-04-02T00:36:30.501Z,9.56
2023-04-02T00:37:30.426Z,9.58
2023-04-02T00:38:30.339Z,9.58
2023-04-02T00:39:30.267Z,9.55
2023-04-02T00:40:30.180Z,9.60
2023-04-02T00:41:30.093Z,9.64
2023-04-02T00:42:30.016Z,9.56
2023-04-02T00:43:29.932Z,9.67
2023-04-02T00:44:29.862Z,9.58
2023-04-02T00:45:29.788Z,9.56
2023-04-02T00:46:29.716Z,9.58
2023-04-02T00:47:29.624Z,9.65
2023-04-02T00:48:29.529Z,9.61
2023-04-02T00:49:29.444Z,9.56
2023-04-02T00:50:29.361Z,9.52
2023-04-02T00:51:29.286Z,9.55
2023-04-02T00:52:29.206Z,9.61
2023-04-02T00:53:29.116Z,9.64
2023-04-02T00:54:29.035Z,9.71
2023-04-02T00:55:28.959Z,9.58
2023-04-02T00:56:28.873Z,9.58
2023-04-02T00:57:28.866Z,9.61
2023-04-02T00:58:28.716Z,9.56
2023-04-02T00:59:28.630Z,9.58
2023-04-02T01:00:28.566Z,9.58
2023-04-02T01:01:28.486Z,9.60
2023-04-02T01:02:28.589Z,9.58
2023-04-02T01:03:28.437Z,9.60
2023-04-02T01:04:28.221Z,9.61
2023-04-02T01:05:28.134Z,9.56
2023-04-02T01:06:28.054Z,9.71
2023-04-02T01:07:27.977Z,9.56
2023-04-02T01:08:27.892Z,9.64
2023-04-02T01:09:27.811Z,9.56
2023-04-02T01:10:27.731Z,9.58
2023-04-02T01:11:27.653Z,9.56
2023-04-02T01:12:27.566Z,9.63
2023-04-02T01:13:27.480Z,9.64
2023-04-02T01:14:27.404Z,9.61
2023-04-02T01:15:27.317Z,9.61
2023-04-02T01:16:27.342Z,9.64
2023-04-02T01:17:27.174Z,9.63
2023-04-02T01:18:27.074Z,9.58
2023-04-02T01:19:27.011Z,9.64
2023-04-02T01:20:26.919Z,9.58
2023-04-02T01:21:26.827Z,9.63
2023-04-02T01:22:26.748Z,9.58
2023-04-02T01:23:26.669Z,9.60
2023-04-02T01:24:26.591Z,9.55
2023-04-02T01:25:26.507Z,9.65
2023-04-02T01:26:26.427Z,9.61
2023-04-02T01:27:26.344Z,9.47
2023-04-02T01:28:26.260Z,9.61
2023-04-02T01:29:26.188Z,9.53
2023-04-02T01:30:26.095Z,9.61
2023-04-02T01:31:26.056Z,9.58
2023-04-02T01:32:25.978Z,9.61
2023-04-02T01:33:25.858Z,9.64
2023-04-02T01:34:26.739Z,9.56
2023-04-02T01:35:25.686Z,9.61
2023-04-02T01:36:25.608Z,9.61
2023-04-02T01:37:25.522Z,9.53
2023-04-02T01:38:25.441Z,9.61
2023-04-02T01:39:25.364Z,9.61
2023-04-02T01:40:25.322Z,9.61
2023-04-02T01:41:25.195Z,9.64
2023-04-02T01:42:25.113Z,9.53
2023-04-02T01:43:25.035Z,9.63
2023-04-02T01:44:24.949Z,9.50
2023-04-02T01:45:24.889Z,9.61
2023-04-02T01:46:24.823Z,9.52
2023-04-02T01:47:24.745Z,9.56
2023-04-02T01:48:24.648Z,9.50
2023-04-02T01:49:24.538Z,9.53
2023-04-02T01:50:24.465Z,9.64
2023-04-02T01:51:24.377Z,9.64
2023-04-02T01:52:24.294Z,9.61
2023-04-02T01:53:24.215Z,9.64
2023-04-02T01:54:24.135Z,9.60
2023-04-02T01:55:24.053Z,9.50
2023-04-02T01:56:23.976Z,9.61
2023-04-02T01:57:23.914Z,9.60
2023-04-02T01:58:23.809Z,9.53
2023-04-02T01:59:23.722Z,9.49
2023-04-02T02:00:23.643Z,9.52
2023-04-02T02:01:23.595Z,9.52
2023-04-02T02:02:23.515Z,9.52
2023-04-02T02:03:23.406Z,9.56
2023-04-02T02:04:23.317Z,9.49
2023-04-02T02:05:23.238Z,9.53
2023-04-02T02:06:23.151Z,9.50
2023-04-02T02:07:23.073Z,9.49
2023-04-02T02:08:22.990Z,9.50
2023-04-02T02:09:23.038Z,9.53
2023-04-02T02:10:22.831Z,9.55
2023-04-02T02:11:22.755Z,9.53
2023-04-02T02:12:22.678Z,9.53
2023-04-02T02:13:22.582Z,9.50
2023-04-02T02:14:22.503Z,9.49
2023-04-02T02:15:22.419Z,9.50
2023-04-02T02:16:22.372Z,9.52
2023-04-02T02:17:22.303Z,9.50
2023-04-02T02:18:22.177Z,9.58
2023-04-02T02:19:22.093Z,9.45
2023-04-02T02:20:22.014Z,9.49
2023-04-02T02:21:21.933Z,9.55
2023-04-02T02:22:21.851Z,9.50
2023-04-02T02:23:21.768Z,9.58
2023-04-02T02:24:21.729Z,9.52
2023-04-02T02:25:21.619Z,9.40
2023-04-02T02:26:21.526Z,9.40
2023-04-02T02:27:21.461Z,9.45
2023-04-02T02:28:21.378Z,9.42
2023-04-02T02:29:21.289Z,9.46
2023-04-02T02:30:21.217Z,9.40
2023-04-02T02:31:21.153Z,9.40
2023-04-02T02:32:21.072Z,9.49
2023-04-02T02:33:20.961Z,9.47
2023-04-02T02:34:20.876Z,9.38
2023-04-02T02:35:20.789Z,9.34
2023-04-02T02:36:20.811Z,9.40
2023-04-02T02:37:20.624Z,9.38
2023-04-02T02:38:20.549Z,9.38
2023-04-02T02:39:20.478Z,9.43
2023-04-02T02:40:20.382Z,9.40
2023-04-02T02:41:20.299Z,9.47
2023-04-02T02:42:20.219Z,9.42
2023-04-02T02:43:20.138Z,9.43
2023-04-02T02:44:20.057Z,9.43
2023-04-02T02:45:19.976Z,9.43
2023-04-02T02:46:19.979Z,9.37
2023-04-02T02:47:19.807Z,9.34
2023-04-02T02:48:19.727Z,9.43
2023-04-02T02:49:19.647Z,9.42
2023-04-02T02:50:19.584Z,9.43
2023-04-02T02:51:19.482Z,9.34
2023-04-02T02:52:19.401Z,9.35
2023-04-02T02:53:19.329Z,9.38
2023-04-02T02:54:19.234Z,9.42
2023-04-02T02:55:19.150Z,9.38
2023-04-02T02:56:19.074Z,9.43
2023-04-02T02:57:19.068Z,9.38
2023-04-02T02:58:18.913Z,9.40
2023-04-02T02:59:18.832Z,9.34
2023-04-02T03:00:18.749Z,9.42
2023-04-02T03:01:18.823Z,9.35
2023-04-02T03:02:18.606Z,9.32
2023-04-02T03:03:18.636Z,9.34
2023-04-02T03:04:18.490Z,9.34
2023-04-02T03:05:18.358Z,9.34
2023-04-02T03:06:18.253Z,9.32
2023-04-02T03:07:18.183Z,9.35
2023-04-02T03:08:18.092Z,9.35
2023-04-02T03:09:18.008Z,9.35
2023-04-02T03:10:17.928Z,9.38
2023-04-02T03:11:17.844Z,9.38
2023-04-02T03:12:17.767Z,9.35
2023-04-02T03:13:17.693Z,9.34
2023-04-02T03:14:17.604Z,9.35
2023-04-02T03:15:17.522Z,9.32
2023-04-02T03:16:17.451Z,9.29
2023-04-02T03:17:17.361Z,9.28
2023-04-02T03:18:17.277Z,9.32
2023-04-02T03:19:17.190Z,9.32
2023-04-02T03:20:17.111Z,9.35
2023-04-02T03:21:17.032Z,9.35
2023-04-02T03:22:16.965Z,9.28
2023-04-02T03:23:17.947Z,9.35
2023-04-02T03:24:16.788Z,9.35
2023-04-02T03:25:16.711Z,9.29
2023-04-02T03:26:16.623Z,9.35
2023-04-02T03:27:16.544Z,9.37
2023-04-02T03:28:16.459Z,9.35
2023-04-02T03:29:16.399Z,9.34
2023-04-02T03:30:16.299Z,9.34
2023-04-02T03:31:16.279Z,9.32
2023-04-02T03:32:16.153Z,9.31
2023-04-02T03:33:16.053Z,9.32
2023-04-02T03:34:15.969Z,9.40
2023-04-02T03:35:15.889Z,9.34
2023-04-02T03:36:15.825Z,9.31
2023-04-02T03:37:15.725Z,9.31
2023-04-02T03:38:15.641Z,9.35
2023-04-02T03:39:15.567Z,9.28
2023-04-02T03:40:15.480Z,9.31
2023-04-02T03:41:15.405Z,9.35
2023-04-02T03:42:15.317Z,9.35
2023-04-02T03:43:15.240Z,9.27
2023-04-02T03:44:15.164Z,9.31
2023-04-02T03:45:15.073Z,9.35
2023-04-02T03:46:15.028Z,9.40
2023-04-02T03:47:14.916Z,9.32
2023-04-02T03:48:14.826Z,9.31
2023-04-02T03:49:14.746Z,9.28
2023-04-02T03:50:14.663Z,9.32
2023-04-02T03:51:14.586Z,9.29
2023-04-02T03:52:14.522Z,9.24
2023-04-02T03:53:14.432Z,9.31
2023-04-02T03:54:14.340Z,9.27
2023-04-02T03:55:14.261Z,9.25
2023-04-02T03:56:14.171Z,9.34
2023-04-02T03:57:14.142Z,9.25
2023-04-02T03:58:14.007Z,9.31
2023-04-02T03:59:13.932Z,9.22
2023-04-02T04:00:13.861Z,9.24
2023-04-02T04:01:13.764Z,9.31
2023-04-02T04:02:13.704Z,9.32
2023-04-02T04:03:13.649Z,9.19
2023-04-02T04:04:13.603Z,9.24
2023-04-02T04:05:13.440Z,9.28
2023-04-02T04:06:13.359Z,9.24
2023-04-02T04:07:13.273Z,9.31
2023-04-02T04:08:13.190Z,9.29
2023-04-02T04:09:13.113Z,9.27
2023-04-02T04:10:13.037Z,9.27
2023-04-02T04:11:12.981Z,9.27
2023-04-02T04:12:12.866Z,9.29
2023-04-02T04:13:12.782Z,9.29
2023-04-02T04:14:12.702Z,9.28
2023-04-02T04:15:12.620Z,9.24
2023-04-02T04:16:12.569Z,9.24
2023-04-02T04:17:12.459Z,9.28
2023-04-02T04:18:12.376Z,9.22
2023-04-02T04:19:12.306Z,9.27
2023-04-02T04:20:12.212Z,9.27
2023-04-02T04:21:12.129Z,9.22
2023-04-02T04:22:12.045Z,9.27
2023-04-02T04:23:11.971Z,9.24
2023-04-02T04:24:11.887Z,9.29
2023-04-02T04:25:11.806Z,9.24
2023-04-02T04:26:11.720Z,9.09
2023-04-02T04:27:11.647Z,9.25
2023-04-02T04:28:11.557Z,9.12
2023-04-02T04:29:11.473Z,9.20
2023-04-02T04:30:11.398Z,9.27
2023-04-02T04:31:11.316Z,9.12
2023-04-02T04:32:11.307Z,9.12
2023-04-02T04:33:11.172Z,9.12
2023-04-02T04:34:11.070Z,9.27
2023-04-02T04:35:11.008Z,9.19
2023-04-02T04:36:10.949Z,9.27
2023-04-02T04:37:10.831Z,9.10
2023-04-02T04:38:10.755Z,9.14
2023-04-02T04:39:10.666Z,9.12
2023-04-02T04:40:10.589Z,9.16
2023-04-02T04:41:10.498Z,9.25
2023-04-02T04:42:10.429Z,9.14
2023-04-02T04:43:10.359Z,9.25
2023-04-02T04:44:10.273Z,9.19
2023-04-02T04:45:10.184Z,9.10
2023-04-02T04:46:10.173Z,9.13
2023-04-02T04:47:10.017Z,9.25
2023-04-02T04:48:09.925Z,9.25
2023-04-02T04:49:09.843Z,9.31
2023-04-02T04:50:09.781Z,9.29
2023-04-02T04:51:09.693Z,9.27
2023-04-02T04:52:09.603Z,9.25
2023-04-02T04:53:09.538Z,9.24
2023-04-02T04:54:09.448Z,9.24
2023-04-02T04:55:09.396Z,9.22
2023-04-02T04:56:18.784Z,9.22
2023-04-02T04:57:09.307Z,9.19
2023-04-02T04:58:09.118Z,9.29
2023-04-02T04:59:09.029Z,9.29
2023-04-02T05:00:08.956Z,9.28
2023-04-02T05:01:08.924Z,9.25
2023-04-02T05:02:08.789Z,9.12
2023-04-02T05:03:08.748Z,9.17
2023-04-02T05:04:08.709Z,9.10
2023-04-02T05:05:08.575Z,9.25
2023-04-02T05:06:08.461Z,9.13
2023-04-02T05:07:08.432Z,9.25
2023-04-02T05:08:08.355Z,9.25
2023-04-02T05:09:08.227Z,9.10
2023-04-02T05:10:08.146Z,9.25
2023-04-02T05:11:08.075Z,9.32
2023-04-02T05:12:08.028Z,9.32
2023-04-02T05:13:07.907Z,9.27
2023-04-02T05:14:07.806Z,9.14
2023-04-02T05:15:07.756Z,9.16
2023-04-02T05:16:07.767Z,9.20
2023-04-02T05:17:07.558Z,9.14
2023-04-02T05:18:07.498Z,9.29
2023-04-02T05:19:07.462Z,9.32
2023-04-02T05:20:07.332Z,9.12
2023-04-02T05:21:07.276Z,9.20
2023-04-02T05:22:07.181Z,9.31
2023-04-02T05:23:07.085Z,9.16
2023-04-02T05:24:07.052Z,9.27
2023-04-02T05:25:06.922Z,9.10
2023-04-02T05:26:06.866Z,9.27
2023-04-02T05:27:06.751Z,9.14
2023-04-02T05:28:06.685Z,9.25
2023-04-02T05:29:06.601Z,9.14
2023-04-02T05:30:06.497Z,9.27
2023-04-02T05:31:06.433Z,9.14
2023-04-02T05:32:06.325Z,9.09
2023-04-02T05:33:06.261Z,9.28
2023-04-02T05:34:06.172Z,9.28
2023-04-02T05:35:06.093Z,9.25
2023-04-02T05:36:06.019Z,9.17
2023-04-02T05:37:07.109Z,9.20
2023-04-02T05:38:05.843Z,9.20
2023-04-02T05:39:05.759Z,9.25
2023-04-02T05:40:05.681Z,9.10
2023-04-02T05:41:05.599Z,9.09
2023-04-02T05:42:05.517Z,9.22
2023-04-02T05:43:05.430Z,9.28
2023-04-02T05:44:05.370Z,9.28
2023-04-02T05:45:05.266Z,9.20
2023-04-02T05:46:05.190Z,9.24
2023-04-02T05:47:05.114Z,9.31
2023-04-02T05:48:05.085Z,9.16
2023-04-02T05:49:04.962Z,9.27
2023-04-02T05:50:04.875Z,9.35
2023-04-02T05:51:04.806Z,9.31
2023-04-02T05:52:04.697Z,9.35
2023-04-02T05:53:04.621Z,9.35
2023-04-02T05:54:04.546Z,9.28
2023-04-02T05:55:04.549Z,9.29
2023-04-02T05:56:04.363Z,9.29
2023-04-02T05:57:04.305Z,9.28
2023-04-02T05:58:29.624Z,9.19
2023-04-02T05:59:04.153Z,9.29
2023-04-02T06:00:04.066Z,9.28
2023-04-02T06:01:03.968Z,9.29
2023-04-02T06:02:03.948Z,9.32
2023-04-02T06:03:03.903Z,9.28
2023-04-02T06:04:03.808Z,9.29
2023-04-02T06:05:03.672Z,9.35
2023-04-02T06:06:03.551Z,9.34
2023-04-02T06:07:03.476Z,9.32
2023-04-02T06:08:03.401Z,9.34
2023-04-02T06:09:03.316Z,9.37
2023-04-02T06:10:03.266Z,9.32
2023-04-02T06:11:03.150Z,9.34
2023-04-02T06:12:03.075Z,9.34
2023-04-02T06:13:02.972Z,9.32
2023-04-02T06:14:02.892Z,9.27
2023-04-02T06:15:02.844Z,9.31
2023-04-02T06:16:02.725Z,9.38
2023-04-02T06:17:02.744Z,9.37
2023-04-02T06:18:02.620Z,9.34
2023-04-02T06:19:02.480Z,9.35
2023-04-02T06:20:02.418Z,9.34
2023-04-02T06:21:02.319Z,9.37
2023-04-02T06:22:02.264Z,9.38
2023-04-02T06:23:02.170Z,9.37
2023-04-02T06:24:02.119Z,9.34
2023-04-02T06:25:02.026Z,9.34
2023-04-02T06:26:01.932Z,9.38
2023-04-02T06:27:01.843Z,9.37
2023-04-02T06:28:01.752Z,9.35
2023-04-02T06:29:01.678Z,9.37
2023-04-02T06:30:01.711Z,9.40
2023-04-02T06:31:01.527Z,9.35
2023-04-02T06:32:01.460Z,9.37
2023-04-02T06:33:01.415Z,9.32
2023-04-02T06:34:01.325Z,9.38
2023-04-02T06:35:01.205Z,9.37
2023-04-02T06:36:01.145Z,9.42
2023-04-02T06:37:01.052Z,9.42
2023-04-02T06:38:01.000Z,9.38
2023-04-02T06:39:00.881Z,9.40
2023-04-02T06:40:00.811Z,9.42
2023-04-02T06:41:00.704Z,9.40
2023-04-02T06:42:00.645Z,9.40
2023-04-02T06:43:00.559Z,9.49
2023-04-02T06:44:00.463Z,9.50
2023-04-02T06:45:00.367Z,9.45
2023-04-02T06:46:00.334Z,9.43
2023-04-02T06:47:00.257Z,9.49
2023-04-02T06:48:00.199Z,9.46
2023-04-02T06:49:00.057Z,9.45
2023-04-02T06:49:59.966Z,9.53
2023-04-02T06:50:59.869Z,9.56
2023-04-02T06:51:59.795Z,9.53
2023-04-02T06:52:59.708Z,9.53
2023-04-02T06:53:59.622Z,9.55
2023-04-02T06:54:59.592Z,9.60
2023-04-02T06:55:59.470Z,9.50
2023-04-02T06:56:59.416Z,9.49
2023-04-02T06:57:59.296Z,9.61
2023-04-02T06:58:59.223Z,9.56
2023-04-02T06:59:59.139Z,9.52
2023-04-02T07:00:59.059Z,9.61
2023-04-02T07:01:59.032Z,9.61
2023-04-02T07:02:58.929Z,9.61
2023-04-02T07:03:58.807Z,9.63
2023-04-02T07:04:58.749Z,9.64
2023-04-02T07:05:58.643Z,9.61
2023-04-02T07:06:58.559Z,9.61
2023-04-02T07:07:58.477Z,9.58
2023-04-02T07:08:58.398Z,9.61
2023-04-02T07:09:58.330Z,9.64
2023-04-02T07:10:58.238Z,9.56
2023-04-02T07:11:58.150Z,9.52
2023-04-02T07:12:58.075Z,9.60
2023-04-02T07:13:58.006Z,9.67
2023-04-02T07:14:57.936Z,9.71
2023-04-02T07:15:57.870Z,9.71
2023-04-02T07:16:57.778Z,9.70
2023-04-02T07:17:57.726Z,9.71
2023-04-02T07:18:57.595Z,9.71
2023-04-02T07:19:57.545Z,9.65
2023-04-02T07:20:57.457Z,9.72
2023-04-02T07:21:57.353Z,9.72
2023-04-02T07:22:57.270Z,9.70
2023-04-02T07:23:57.254Z,9.79
2023-04-02T07:24:57.127Z,9.83
2023-04-02T07:25:57.108Z,9.83
2023-04-02T07:26:56.937Z,9.79
2023-04-02T07:27:56.865Z,9.86
2023-04-02T07:28:56.787Z,9.86
2023-04-02T07:29:56.685Z,9.82
2023-04-02T07:30:56.670Z,9.92
2023-04-02T07:31:56.602Z,9.90
2023-04-02T07:32:56.496Z,9.90
2023-04-02T07:33:56.397Z,9.89
2023-04-02T07:34:56.305Z,9.92
2023-04-02T07:35:56.233Z,9.92
2023-04-02T07:36:56.117Z,9.80
2023-04-02T07:37:56.032Z,9.85
2023-04-02T07:38:56.076Z,9.92
2023-04-02T07:39:55.897Z,9.93
2023-04-02T07:40:55.798Z,9.97
2023-04-02T07:41:55.720Z,9.96
2023-04-02T07:42:55.636Z,9.92
2023-04-02T07:43:55.600Z,9.93
2023-04-02T07:44:55.518Z,9.89
2023-04-02T07:45:55.397Z,9.88
2023-04-02T07:46:55.332Z,9.98
2023-04-02T07:47:55.241Z,10.00
2023-04-02T07:48:55.158Z,10.11
2023-04-02T07:49:55.056Z,10.01
2023-04-02T07:50:55.018Z,10.07
2023-04-02T07:51:54.925Z,10.04
2023-04-02T07:52:54.842Z,10.04
2023-04-02T07:53:54.730Z,10.07
2023-04-02T07:54:54.646Z,10.04
2023-04-02T07:55:54.576Z,10.21
2023-04-02T07:56:54.530Z,10.15
2023-04-02T07:57:54.421Z,10.15
2023-04-02T07:58:54.328Z,10.06
2023-04-02T07:59:54.242Z,10.13
2023-04-02T08:00:54.163Z,10.06
2023-04-02T08:01:54.145Z,10.08
2023-04-02T08:02:54.132Z,10.16
2023-04-02T08:03:54.656Z,10.16
2023-04-02T08:04:53.831Z,10.10
2023-04-02T08:05:53.745Z,10.22
2023-04-02T08:06:53.689Z,10.19
2023-04-02T08:07:53.599Z,10.23
2023-04-02T08:08:53.505Z,10.21
2023-04-02T08:09:53.424Z,10.22
2023-04-02T08:10:53.348Z,10.22
2023-04-02T08:11:53.261Z,10.22
2023-04-02T08:12:53.189Z,10.15
2023-04-02T08:13:53.104Z,10.13
2023-04-02T08:14:53.025Z,10.13
2023-04-02T08:15:52.944Z,10.15
2023-04-02T08:16:53.051Z,10.15
2023-04-02T08:17:52.881Z,10.16
2023-04-02T08:18:52.694Z,10.11
2023-04-02T08:19:55.178Z,10.18
2023-04-02T08:20:52.546Z,10.08
2023-04-02T08:21:52.477Z,10.10
2023-04-02T08:22:52.369Z,10.16
2023-04-02T08:23:52.329Z,10.18
2023-04-02T08:24:52.209Z,10.15
2023-04-02T08:25:52.126Z,10.16
2023-04-02T08:26:52.045Z,10.06
2023-04-02T08:27:51.977Z,10.15
2023-04-02T08:28:51.886Z,10.16
2023-04-02T08:29:51.825Z,10.22
2023-04-02T08:30:51.755Z,10.23
2023-04-02T08:31:51.665Z,10.28
2023-04-02T08:32:51.646Z,10.21
2023-04-02T08:33:51.505Z,10.29
2023-04-02T08:34:51.396Z,10.21
2023-04-02T08:35:51.416Z,10.23
2023-04-02T08:36:51.248Z,10.29
2023-04-02T08:37:51.169Z,10.28
2023-04-02T08:38:51.134Z,10.28
2023-04-02T08:39:50.987Z,10.25
2023-04-02T08:40:50.979Z,10.26
2023-04-02T08:41:50.979Z,10.26
2023-04-02T08:42:50.746Z,10.25
2023-04-02T08:43:50.670Z,10.33
2023-04-02T08:44:50.591Z,10.31
2023-04-02T08:45:50.542Z,10.36
2023-04-02T08:46:50.560Z,10.41
2023-04-02T08:47:50.432Z,10.41
2023-04-02T08:48:50.259Z,10.36
2023-04-02T08:49:50.174Z,10.46
2023-04-02T08:50:50.116Z,10.46
2023-04-02T08:51:50.125Z,10.47
2023-04-02T08:52:50.038Z,10.43
2023-04-02T08:53:49.855Z,10.44
2023-04-02T08:54:49.792Z,10.41
2023-04-02T08:55:49.688Z,10.46
2023-04-02T08:56:49.816Z,10.43
2023-04-02T08:57:49.758Z,10.40
2023-04-02T08:58:49.470Z,10.41
2023-04-02T08:59:49.370Z,10.41
2023-04-02T09:00:49.282Z,10.37
2023-04-02T09:01:49.228Z,10.39
2023-04-02T09:02:49.170Z,10.46
2023-04-02T09:03:49.052Z,10.39
2023-04-02T09:04:49.066Z,10.40
2023-04-02T09:05:48.888Z,10.43
2023-04-02T09:06:48.831Z,10.40
2023-04-02T09:07:48.724Z,10.41
2023-04-02T09:08:48.658Z,10.40
2023-04-02T09:09:48.600Z,10.41
2023-04-02T09:10:48.472Z,10.47
2023-04-02T09:11:48.388Z,10.40
2023-04-02T09:12:48.304Z,10.41
2023-04-02T09:13:48.230Z,10.43
2023-04-02T09:14:48.150Z,10.39
2023-04-02T09:15:48.104Z,10.41
2023-04-02T09:16:47.973Z,10.37
2023-04-02T09:17:54.204Z,10.40
2023-04-02T09:18:47.850Z,10.36
2023-04-02T09:19:47.793Z,10.23
2023-04-02T09:20:47.654Z,10.16
2023-04-02T09:21:47.651Z,10.10
2023-04-02T09:22:47.492Z,10.10
2023-04-02T09:23:47.426Z,10.15
2023-04-02T09:24:47.358Z,10.11
2023-04-02T09:25:54.278Z,10.08
2023-04-02T09:26:47.178Z,10.13
2023-04-02T09:27:47.108Z,10.10
2023-04-02T09:28:47.045Z,10.06
2023-04-02T09:29:46.941Z,10.01
2023-04-02T09:30:46.847Z,10.10
2023-04-02T09:31:46.807Z,10.07
2023-04-02T09:32:46.766Z,10.04
2023-04-02T09:33:46.601Z,10.10
2023-04-02T09:34:46.529Z,10.08
2023-04-02T09:35:46.474Z,10.07
2023-04-02T09:36:46.364Z,10.06
2023-04-02T09:37:46.288Z,10.10
2023-04-02T09:38:46.230Z,10.06
2023-04-02T09:39:46.165Z,10.03
2023-04-02T09:40:46.041Z,10.11
2023-04-02T09:41:50.232Z,10.10
2023-04-02T09:42:45.923Z,10.16
2023-04-02T09:43:45.791Z,10.15
2023-04-02T09:44:45.740Z,10.16
2023-04-02T09:45:45.649Z,10.06
2023-04-02T09:46:45.579Z,10.13
2023-04-02T09:47:45.525Z,10.04
2023-04-02T09:48:45.394Z,10.10
2023-04-02T09:49:45.304Z,10.11
2023-04-02T09:50:45.229Z,10.08
2023-04-02T09:51:45.143Z,10.11
2023-04-02T09:52:45.064Z,10.07
2023-04-02T09:53:44.990Z,10.07
2023-04-02T09:54:44.908Z,10.08
2023-04-02T09:55:44.833Z,9.98
2023-04-02T09:56:44.757Z,10.01
2023-04-02T09:57:44.656Z,10.04
2023-04-02T09:58:44.568Z,9.98
2023-04-02T09:59:44.500Z,10.04
2023-04-02T10:00:44.634Z,10.04
2023-04-02T10:01:44.515Z,10.03
2023-04-02T10:02:44.317Z,10.04
2023-04-02T10:03:44.160Z,9.92
2023-04-02T10:04:44.143Z,10.01
2023-04-02T10:05:44.272Z,9.98
2023-04-02T10:06:43.963Z,9.90
2023-04-02T10:07:43.936Z,9.92
2023-04-02T10:08:43.751Z,9.98
2023-04-02T10:09:43.696Z,9.89
2023-04-02T10:10:43.619Z,9.96
2023-04-02T10:11:46.652Z,9.88
2023-04-02T10:12:43.439Z,9.85
2023-04-02T10:13:43.418Z,9.80
2023-04-02T10:14:43.383Z,9.85
2023-04-02T10:15:43.245Z,9.79
2023-04-02T10:16:43.185Z,9.83
2023-04-02T10:17:43.063Z,9.79
2023-04-02T10:18:42.971Z,9.82
2023-04-02T10:19:42.858Z,9.85
2023-04-02T10:20:51.026Z,9.89
2023-04-02T10:21:42.707Z,9.89
2023-04-02T10:22:42.688Z,9.89
2023-04-02T10:23:42.538Z,9.93
2023-04-02T10:24:42.484Z,9.96
2023-04-02T10:25:42.377Z,9.83
2023-04-02T10:26:42.305Z,9.82
2023-04-02T10:27:42.217Z,9.80
2023-04-02T10:28:42.159Z,9.83
2023-04-02T10:29:42.074Z,9.78
2023-04-02T10:30:41.973Z,9.78
2023-04-02T10:31:41.922Z,9.79
2023-04-02T10:32:41.887Z,9.78
2023-04-02T10:33:41.726Z,9.74
2023-04-02T10:34:43.187Z,9.71
2023-04-02T10:35:41.621Z,9.64
2023-04-02T10:36:41.504Z,9.68
2023-04-02T10:37:41.407Z,9.75
2023-04-02T10:38:41.379Z,9.70
2023-04-02T10:39:41.307Z,9.79
2023-04-02T10:40:41.170Z,9.80
2023-04-02T10:41:41.083Z,9.82
2023-04-02T10:42:41.001Z,9.78
2023-04-02T10:43:40.924Z,9.80
2023-04-02T10:44:40.862Z,9.79
2023-04-02T10:45:40.799Z,9.75
2023-04-02T10:46:40.785Z,9.89
2023-04-02T10:47:40.641Z,9.75
2023-04-02T10:48:40.509Z,9.85
2023-04-02T10:49:40.489Z,9.75
2023-04-02T10:50:40.366Z,9.74
2023-04-02T10:51:40.285Z,9.74
2023-04-02T10:52:40.190Z,9.78
2023-04-02T10:53:40.149Z,9.80
2023-04-02T10:54:40.037Z,9.82
2023-04-02T10:55:39.960Z,9.68
2023-04-02T10:56:48.295Z,9.79
2023-04-02T10:57:39.838Z,9.75
2023-04-02T10:58:39.732Z,9.67
2023-04-02T10:59:39.647Z,9.80
2023-04-02T11:00:39.581Z,9.71
2023-04-02T11:01:39.538Z,9.78
2023-04-02T11:02:39.442Z,9.75
2023-04-02T11:03:39.480Z,9.70
2023-04-02T11:04:39.204Z,9.71
2023-04-02T11:05:39.129Z,9.68
2023-04-02T11:06:39.058Z,9.74
2023-04-02T11:07:38.962Z,9.82
2023-04-02T11:08:38.886Z,9.75
2023-04-02T11:09:38.800Z,9.78
2023-04-02T11:10:38.730Z,9.74
2023-04-02T11:11:38.717Z,9.64
2023-04-02T11:12:41.660Z,9.63
2023-04-02T11:13:38.483Z,9.50
2023-04-02T11:14:38.466Z,9.60
2023-04-02T11:15:38.319Z,9.53
2023-04-02T11:16:42.496Z,9.49
2023-04-02T11:17:38.200Z,9.58
2023-04-02T11:18:38.066Z,9.52
2023-04-02T11:19:37.983Z,9.56
2023-04-02T11:20:37.908Z,9.38
2023-04-02T11:21:44.826Z,9.43
2023-04-02T11:22:37.775Z,9.58
2023-04-02T11:23:37.663Z,9.42
2023-04-02T11:24:37.584Z,9.38
2023-04-02T11:25:37.572Z,9.53
2023-04-02T11:26:37.473Z,9.55
2023-04-02T11:27:37.346Z,9.38
2023-04-02T11:28:37.288Z,9.38
2023-04-02T11:29:37.176Z,9.42
2023-04-02T11:30:37.097Z,9.49
2023-04-02T11:31:37.081Z,9.52
2023-04-02T11:32:36.956Z,9.50
2023-04-02T11:33:39.337Z,9.35
2023-04-02T11:34:36.775Z,9.49
2023-04-02T11:35:36.955Z,9.46
2023-04-02T11:36:36.630Z,9.53
2023-04-02T11:37:36.557Z,9.53
2023-04-02T11:38:36.437Z,9.60
2023-04-02T11:39:36.406Z,9.64
2023-04-02T11:40:36.288Z,9.70
2023-04-02T11:41:36.196Z,9.68
2023-04-02T11:42:36.127Z,9.74
2023-04-02T11:43:36.211Z,9.68
2023-04-02T11:44:35.989Z,9.72
2023-04-02T11:45:46.460Z,9.68
2023-04-02T11:46:35.828Z,9.67
2023-04-02T11:47:35.730Z,9.68
2023-04-02T11:48:35.636Z,9.70
2023-04-02T11:49:35.629Z,9.67
2023-04-02T11:50:35.549Z,9.65
2023-04-02T11:51:35.406Z,9.63
2023-04-02T11:52:35.318Z,9.56
2023-04-02T11:53:35.223Z,9.60
2023-04-02T11:54:35.144Z,9.58
2023-04-02T11:55:35.415Z,9.63
2023-04-02T11:56:34.986Z,9.40
2023-04-02T11:57:34.978Z,9.38
2023-04-02T11:58:34.853Z,9.25
2023-04-02T11:59:34.739Z,9.40
2023-04-02T12:00:34.897Z,9.34
2023-04-02T12:01:34.580Z,9.42
2023-04-02T12:02:34.543Z,9.40
2023-04-02T12:03:34.418Z,9.34
2023-04-02T12:04:34.329Z,9.47
2023-04-02T12:05:34.407Z,9.47
2023-04-02T12:06:34.168Z,9.40
2023-04-02T12:07:34.100Z,9.40
2023-04-02T12:08:36.194Z,9.32
2023-04-02T12:09:33.933Z,9.34
2023-04-02T12:10:33.840Z,9.34
2023-04-02T12:11:33.776Z,9.38
2023-04-02T12:12:33.682Z,9.31
2023-04-02T12:13:33.620Z,9.38
2023-04-02T12:14:33.570Z,9.35
2023-04-02T12:15:33.669Z,9.31
2023-04-02T12:16:33.495Z,9.38
2023-04-02T12:17:33.309Z,9.34
2023-04-02T12:18:33.189Z,9.37
2023-04-02T12:19:33.109Z,9.38
2023-04-02T12:20:33.191Z,9.47
2023-04-02T12:21:32.933Z,9.56
2023-04-02T12:22:32.912Z,9.55
2023-04-02T12:23:32.772Z,9.45
2023-04-02T12:24:32.688Z,9.49
2023-04-02T12:25:32.628Z,9.56
2023-04-02T12:26:32.529Z,9.60
2023-04-02T12:27:32.485Z,9.49
2023-04-02T12:28:32.390Z,9.50
2023-04-02T12:29:32.292Z,9.60
2023-04-02T12:30:32.208Z,9.53
2023-04-02T12:31:32.134Z,9.56
2023-04-02T12:32:32.147Z,9.50
2023-04-02T12:33:31.988Z,9.58
2023-04-02T12:34:31.927Z,9.52
2023-04-02T12:35:31.830Z,9.56
2023-04-02T12:36:31.716Z,9.50
2023-04-02T12:37:31.695Z,9.49
2023-04-02T12:38:31.605Z,9.50
2023-04-02T12:39:31.476Z,9.56
2023-04-02T12:40:31.387Z,9.53
2023-04-02T12:41:31.309Z,9.42
2023-04-02T12:42:31.228Z,9.38
2023-04-02T12:43:31.214Z,9.50
2023-04-02T12:44:31.137Z,9.49
2023-04-02T12:45:30.985Z,9.38
2023-04-02T12:46:30.933Z,9.47
2023-04-02T12:47:30.849Z,9.37
2023-04-02T12:48:30.781Z,9.38
2023-04-02T12:49:30.655Z,9.40
2023-04-02T12:50:30.575Z,9.20
2023-04-02T12:51:30.520Z,9.20
2023-04-02T12:52:30.648Z,9.17
2023-04-02T12:53:30.363Z,9.16
2023-04-02T12:54:30.245Z,9.17
2023-04-02T12:55:30.162Z,9.16
2023-04-02T12:56:30.087Z,9.09
2023-04-02T12:57:30.060Z,9.02
2023-04-02T12:58:29.919Z,9.10
2023-04-02T12:59:29.882Z,9.14
2023-04-02T13:00:29.758Z,9.16
2023-04-02T13:01:29.723Z,9.19
2023-04-02T13:02:29.651Z,9.24
2023-04-02T13:03:29.560Z,9.22
2023-04-02T13:04:29.479Z,9.13
2023-04-02T13:05:29.345Z,9.13
2023-04-02T13:06:29.269Z,9.29
2023-04-02T13:07:29.195Z,9.29
2023-04-02T13:08:29.108Z,9.29
2023-04-02T13:09:29.068Z,9.24
2023-04-02T13:10:28.940Z,9.25
2023-04-02T13:11:28.863Z,9.17
2023-04-02T13:12:28.779Z,9.16